Time;durP1;ratioP1;P1;durP2;ratioP2;P2;SDS_P1;SDS_P2;PMS_P1;PMS_P2;Temp;Humidity;BMP_temperature;BMP_pressure;BME280_temperature;BME280_humidity;BME280_pressure;Samples;Min_cycle;Max_cycle;Signal;HPM_P1;HPM_P2
2022/04/28 00:02:13;;;;;;;;;;;9.10;99.90;;;;;;4999442;28;19926;-69
2022/04/28 00:04:38;;;;;;;;;;;8.00;99.90;;;;;;5001354;28;20019;-68
2022/04/28 00:07:04;;;;;;;;;;;8.00;99.90;;;;;;5002707;28;20016;-68
2022/04/28 00:09:30;;;;;;;;;;;8.00;99.90;;;;;;4995812;28;19971;-67
2022/04/28 00:11:55;;;;;;;;;;;8.40;99.90;;;;;;5008208;28;20016;-70
2022/04/28 00:14:21;;;;;;;;;;;8.00;99.90;;;;;;4993204;28;20376;-68
2022/04/28 00:16:47;;;;;;;;;;;8.10;99.90;;;;;;4996989;28;20678;-68
2022/04/28 00:19:13;;;;;;;;;;;8.00;99.90;;;;;;4998954;28;20268;-68
2022/04/28 00:21:38;;;;;;;;;;;8.00;99.90;;;;;;4999284;28;20225;-68
2022/04/28 00:24:04;;;;;;;;;;;8.10;99.90;;;;;;4999148;28;19925;-68
2022/04/28 00:26:30;;;;;;;;;;;8.00;99.90;;;;;;4998362;28;19948;-67
2022/04/28 00:28:55;;;;;;;;;;;8.90;99.90;;;;;;5003186;28;19925;-69
2022/04/28 00:31:21;;;;;;;;;;;8.10;99.90;;;;;;4999278;28;19960;-68
2022/04/28 00:33:48;;;;;;;;;;;8.10;99.90;;;;;;5003610;28;19921;-68
2022/04/28 00:36:14;;;;;;;;;;;8.00;99.90;;;;;;5003869;28;19925;-68
2022/04/28 00:38:40;;;;;;;;;;;8.00;99.90;;;;;;5005949;28;19922;-67
2022/04/28 00:41:05;;;;;;;;;;;8.00;99.90;;;;;;5006316;28;19925;-67
2022/04/28 00:43:32;;;;;;;;;;;8.00;99.90;;;;;;5006230;28;19925;-69
2022/04/28 00:45:57;;;;;;;;;;;7.90;99.90;;;;;;5000134;28;19933;-68
2022/04/28 00:51:08;;;;;;;;;;;8.00;99.90;;;;;;5001662;28;20012;-67
2022/04/28 00:53:34;;;;;;;;;;;8.00;99.90;;;;;;5006883;28;20012;-68
2022/04/28 00:56:00;;;;;;;;;;;8.00;99.90;;;;;;5008407;28;19929;-67
2022/04/28 00:58:26;;;;;;;;;;;8.10;99.90;;;;;;5018676;28;19932;-69
2022/04/28 01:00:55;;;;;;;;;;;8.00;99.90;;;;;;5004800;28;19929;-67
2022/04/28 01:03:21;;;;;;;;;;;8.00;99.90;;;;;;5005098;28;19936;-69
2022/04/28 01:05:47;;;;;;;;;;;8.00;99.90;;;;;;5005152;28;19929;-69
2022/04/28 01:08:13;;;;;;;;;;;7.90;99.90;;;;;;5007110;28;19964;-67
2022/04/28 01:10:39;;;;;;;;;;;7.90;99.90;;;;;;5001468;28;20353;-68
2022/04/28 01:13:04;;;;;;;;;;;8.00;99.90;;;;;;5007648;28;20210;-67
2022/04/28 01:15:30;;;;;;;;;;;8.00;99.90;;;;;;5007384;28;19932;-68
2022/04/28 01:17:55;;;;;;;;;;;8.80;99.90;;;;;;5002417;28;19922;-69
2022/04/28 01:20:21;;;;;;;;;;;8.50;99.90;;;;;;4999315;28;19925;-68
2022/04/28 01:22:46;;;;;;;;;;;8.00;99.90;;;;;;5000626;28;19932;-68
2022/04/28 01:25:12;;;;;;;;;;;8.00;99.90;;;;;;5000473;28;20079;-68
2022/04/28 01:27:41;;;;;;;;;;;8.00;99.90;;;;;;4998319;28;19930;-68
2022/04/28 01:30:14;;;;;;;;;;;8.10;99.90;;;;;;4998153;28;19937;-69
2022/04/28 01:32:40;;;;;;;;;;;8.00;99.90;;;;;;5002568;28;19929;-68
2022/04/28 01:35:05;;;;;;;;;;;8.70;99.90;;;;;;5003258;28;19925;-68
2022/04/28 01:37:31;;;;;;;;;;;8.00;99.90;;;;;;4998425;28;20463;-67
2022/04/28 01:39:57;;;;;;;;;;;8.00;99.90;;;;;;5004746;28;19925;-67
2022/04/28 01:42:23;;;;;;;;;;;8.00;99.90;;;;;;5004343;28;20621;-69
2022/04/28 01:44:49;;;;;;;;;;;7.90;99.90;;;;;;4994948;28;19932;-67
2022/04/28 01:47:14;;;;;;;;;;;7.90;99.90;;;;;;5001551;28;19965;-68
2022/04/28 01:49:40;;;;;;;;;;;7.90;99.90;;;;;;5004040;28;19973;-67
2022/04/28 01:54:59;;;;;;;;;;;7.90;99.90;;;;;;5002319;28;19925;-67
2022/04/28 01:57:29;;;;;;;;;;;8.00;99.90;;;;;;5006042;28;19925;-69
2022/04/28 01:59:56;;;;;;;;;;;8.00;99.90;;;;;;5007176;28;19925;-67
2022/04/28 02:02:22;;;;;;;;;;;8.00;99.90;;;;;;4999524;28;19933;-68
2022/04/28 02:04:47;;;;;;;;;;;8.00;99.90;;;;;;4996450;28;19925;-69
2022/04/28 02:07:13;;;;;;;;;;;8.00;99.90;;;;;;4998936;28;19933;-68
2022/04/28 02:09:40;;;;;;;;;;;7.90;99.90;;;;;;5006662;28;20379;-68
2022/04/28 02:12:06;;;;;;;;;;;8.40;99.90;;;;;;5003666;28;19933;-68
2022/04/28 02:14:31;;;;;;;;;;;7.90;99.90;;;;;;5003185;28;20151;-68
2022/04/28 02:16:57;;;;;;;;;;;8.10;99.90;;;;;;4998501;28;20386;-68
2022/04/28 02:19:22;;;;;;;;;;;7.90;99.90;;;;;;5001471;28;20049;-68
2022/04/28 02:21:49;;;;;;;;;;;7.90;99.90;;;;;;4996589;28;19925;-68
2022/04/28 02:24:14;;;;;;;;;;;7.90;99.90;;;;;;4998237;28;19984;-68
2022/04/28 02:26:40;;;;;;;;;;;7.90;99.90;;;;;;4998008;28;19991;-68
2022/04/28 02:29:05;;;;;;;;;;;8.00;99.90;;;;;;5000297;28;20553;-67
2022/04/28 02:31:31;;;;;;;;;;;8.00;99.90;;;;;;5002006;28;19929;-68
2022/04/28 02:33:56;;;;;;;;;;;8.00;99.90;;;;;;4993570;28;20328;-68
2022/04/28 02:36:24;;;;;;;;;;;8.00;99.90;;;;;;5002273;28;19929;-68
2022/04/28 02:38:50;;;;;;;;;;;7.90;99.90;;;;;;5004748;28;19972;-68
2022/04/28 02:41:20;;;;;;;;;;;8.50;99.90;;;;;;4995087;28;20025;-68
2022/04/28 02:43:46;;;;;;;;;;;8.00;99.90;;;;;;5016053;28;20011;-68
2022/04/28 02:46:11;;;;;;;;;;;8.00;99.90;;;;;;5001007;28;20020;-67
2022/04/28 02:48:37;;;;;;;;;;;9.00;99.90;;;;;;5000864;28;19936;-68
2022/04/28 02:51:03;;;;;;;;;;;8.00;99.90;;;;;;5005561;28;19926;-68
2022/04/28 02:53:28;;;;;;;;;;;7.60;99.90;;;;;;5005836;28;20087;-68
2022/04/28 02:55:54;;;;;;;;;;;7.90;99.90;;;;;;5009043;28;19925;-69
2022/04/28 02:58:19;;;;;;;;;;;7.90;99.90;;;;;;5001367;28;19925;-68
2022/04/28 03:00:45;;;;;;;;;;;7.90;99.90;;;;;;5004989;28;19971;-68
2022/04/28 03:03:10;;;;;;;;;;;7.90;99.90;;;;;;5007548;28;19932;-69
2022/04/28 03:11:04;;;;;;;;;;;7.90;99.90;;;;;;5002435;28;19932;-69
2022/04/28 03:13:31;;;;;;;;;;;7.90;99.90;;;;;;5021464;28;19925;-69
2022/04/28 03:16:00;;;;;;;;;;;8.70;99.90;;;;;;5005668;28;20271;-68
2022/04/28 03:18:25;;;;;;;;;;;7.90;99.90;;;;;;5000691;28;20439;-67
2022/04/28 03:20:51;;;;;;;;;;;7.90;99.90;;;;;;5012569;28;19930;-67
2022/04/28 03:23:16;;;;;;;;;;;7.90;99.90;;;;;;5004716;28;20648;-68
2022/04/28 03:25:42;;;;;;;;;;;8.00;99.90;;;;;;5002084;28;20042;-67
2022/04/28 03:28:08;;;;;;;;;;;8.00;99.90;;;;;;5007371;28;19941;-68
2022/04/28 03:30:34;;;;;;;;;;;8.10;99.90;;;;;;5000607;28;20094;-68
2022/04/28 03:33:00;;;;;;;;;;;8.00;99.90;;;;;;5006298;28;20020;-66
2022/04/28 03:35:26;;;;;;;;;;;8.00;99.90;;;;;;5006786;28;20019;-69
2022/04/28 03:37:51;;;;;;;;;;;8.00;99.90;;;;;;5002663;28;20189;-68
2022/04/28 03:40:17;;;;;;;;;;;8.00;99.90;;;;;;4997773;28;19936;-68
2022/04/28 03:42:43;;;;;;;;;;;8.00;99.90;;;;;;5003420;28;19928;-68
2022/04/28 03:45:09;;;;;;;;;;;8.00;99.90;;;;;;5004664;28;19931;-68
2022/04/28 03:47:37;;;;;;;;;;;8.00;99.90;;;;;;4994621;28;20066;-67
2022/04/28 03:50:05;;;;;;;;;;;8.00;99.90;;;;;;4999313;28;19926;-68
2022/04/28 03:52:31;;;;;;;;;;;8.10;99.90;;;;;;5012239;28;20384;-68
2022/04/28 03:54:56;;;;;;;;;;;8.10;99.90;;;;;;5004337;28;20021;-67
2022/04/28 03:57:22;;;;;;;;;;;8.10;99.90;;;;;;5001950;28;20019;-68
2022/04/28 03:59:47;;;;;;;;;;;8.10;99.90;;;;;;4998645;28;20636;-68
2022/04/28 04:02:16;;;;;;;;;;;8.20;99.90;;;;;;4999211;28;19926;-68
2022/04/28 04:04:42;;;;;;;;;;;8.10;99.90;;;;;;5002281;28;19932;-68
2022/04/28 04:07:07;;;;;;;;;;;8.10;99.90;;;;;;4995043;28;20427;-68
2022/04/28 04:09:33;;;;;;;;;;;8.40;99.90;;;;;;5004846;28;19926;-68
2022/04/28 04:11:58;;;;;;;;;;;8.10;99.90;;;;;;5006121;28;19932;-68
2022/04/28 04:14:24;;;;;;;;;;;8.20;99.90;;;;;;5000602;28;20006;-69
2022/04/28 04:16:49;;;;;;;;;;;8.20;99.90;;;;;;4998824;28;19936;-67
2022/04/28 04:19:15;;;;;;;;;;;8.10;99.90;;;;;;5006756;28;19931;-69
2022/04/28 04:21:40;;;;;;;;;;;8.10;99.90;;;;;;5000880;28;19929;-69
2022/04/28 04:24:06;;;;;;;;;;;8.30;99.90;;;;;;4995855;28;19925;-68
2022/04/28 04:26:32;;;;;;;;;;;8.20;99.90;;;;;;5002687;28;20016;-68
2022/04/28 04:28:57;;;;;;;;;;;8.20;99.90;;;;;;4992691;28;20399;-68
2022/04/28 04:34:07;;;;;;;;;;;8.10;99.90;;;;;;5003492;28;20683;-67
2022/04/28 04:36:32;;;;;;;;;;;8.10;99.90;;;;;;5006257;28;19991;-68
2022/04/28 04:38:58;;;;;;;;;;;8.00;99.90;;;;;;5000720;28;20020;-68
2022/04/28 04:41:24;;;;;;;;;;;7.90;99.90;;;;;;4996940;28;19936;-68
2022/04/28 04:43:49;;;;;;;;;;;8.00;99.90;;;;;;5000774;28;19926;-68
2022/04/28 04:46:15;;;;;;;;;;;7.90;99.90;;;;;;5005790;28;20309;-68
2022/04/28 04:48:40;;;;;;;;;;;7.90;99.90;;;;;;5006418;28;20326;-68
2022/04/28 04:51:06;;;;;;;;;;;7.80;99.90;;;;;;5005233;28;19968;-67
2022/04/28 04:53:31;;;;;;;;;;;7.70;99.90;;;;;;5004704;28;19928;-66
2022/04/28 04:55:57;;;;;;;;;;;7.70;99.90;;;;;;5005844;28;20360;-68
2022/04/28 04:58:22;;;;;;;;;;;7.60;99.90;;;;;;5001584;28;20260;-68
2022/04/28 05:00:48;;;;;;;;;;;7.60;99.90;;;;;;5000221;28;20007;-68
2022/04/28 05:03:15;;;;;;;;;;;7.50;99.90;;;;;;4995682;28;19979;-67
2022/04/28 05:05:43;;;;;;;;;;;7.60;99.90;;;;;;5004917;28;21255;-67
2022/04/28 05:08:09;;;;;;;;;;;7.50;99.90;;;;;;5000790;28;19933;-68
2022/04/28 05:10:34;;;;;;;;;;;7.50;99.90;;;;;;4999594;28;19925;-67
2022/04/28 05:13:00;;;;;;;;;;;7.40;99.90;;;;;;4997825;28;19926;-68
2022/04/28 05:15:25;;;;;;;;;;;7.40;99.90;;;;;;4995861;28;19922;-67
2022/04/28 05:17:51;;;;;;;;;;;7.40;99.90;;;;;;4999669;28;19933;-68
2022/04/28 05:20:16;;;;;;;;;;;7.40;99.90;;;;;;5004504;28;20311;-68
2022/04/28 05:22:42;;;;;;;;;;;7.30;99.90;;;;;;5001915;28;20279;-71
2022/04/28 05:25:07;;;;;;;;;;;7.30;99.90;;;;;;5000669;28;19932;-68
2022/04/28 05:27:33;;;;;;;;;;;7.30;99.90;;;;;;5000036;28;19925;-67
2022/04/28 05:29:58;;;;;;;;;;;7.30;99.90;;;;;;5004349;28;19925;-68
2022/04/28 05:32:24;;;;;;;;;;;7.30;99.90;;;;;;5020629;28;19918;-68
2022/04/28 05:34:49;;;;;;;;;;;7.40;99.90;;;;;;5003098;28;19926;-68
2022/04/28 05:37:15;;;;;;;;;;;7.40;99.90;;;;;;5005673;28;19932;-67
2022/04/28 05:39:42;;;;;;;;;;;7.50;99.90;;;;;;4998159;28;20348;-67
2022/04/28 05:42:08;;;;;;;;;;;7.50;99.90;;;;;;4998182;28;20462;-67
2022/04/28 05:47:26;;;;;;;;;;;7.50;99.90;;;;;;5000658;28;19925;-67
2022/04/28 05:49:53;;;;;;;;;;;7.50;99.90;;;;;;4998548;28;20252;-68
2022/04/28 05:52:19;;;;;;;;;;;7.60;99.90;;;;;;4999013;28;19925;-68
2022/04/28 05:54:44;;;;;;;;;;;8.20;99.90;;;;;;4995735;28;19932;-68
2022/04/28 05:57:13;;;;;;;;;;;7.70;99.90;;;;;;4999948;28;20011;-67
2022/04/28 05:59:42;;;;;;;;;;;7.80;99.90;;;;;;4997694;28;19925;-67
2022/04/28 06:02:07;;;;;;;;;;;7.90;99.90;;;;;;4999594;28;19983;-67
2022/04/28 06:04:33;;;;;;;;;;;8.00;99.90;;;;;;5001317;28;20394;-68
2022/04/28 06:06:58;;;;;;;;;;;8.10;99.90;;;;;;5000970;28;19930;-68
2022/04/28 06:09:24;;;;;;;;;;;8.20;99.90;;;;;;5002105;28;19925;-68
2022/04/28 06:11:49;;;;;;;;;;;8.20;99.90;;;;;;5007338;28;19925;-68
2022/04/28 06:14:15;;;;;;;;;;;8.20;99.90;;;;;;5004376;28;19925;-68
2022/04/28 06:16:41;;;;;;;;;;;8.40;99.90;;;;;;5002060;28;19961;-68
2022/04/28 06:19:07;;;;;;;;;;;8.40;99.90;;;;;;5013164;28;19925;-67
2022/04/28 06:21:32;;;;;;;;;;;8.70;99.90;;;;;;4997995;28;19933;-68
2022/04/28 06:23:58;;;;;;;;;;;9.10;99.90;;;;;;5006334;28;19925;-69
2022/04/28 06:26:23;;;;;;;;;;;9.60;99.90;;;;;;5003468;28;19925;-68
2022/04/28 06:28:49;;;;;;;;;;;10.00;99.90;;;;;;5006123;28;20023;-68
2022/04/28 06:31:14;;;;;;;;;;;10.50;99.90;;;;;;5004118;28;20489;-67
2022/04/28 06:33:41;;;;;;;;;;;10.80;99.90;;;;;;4995638;28;19948;-67
2022/04/28 06:36:06;;;;;;;;;;;11.10;99.90;;;;;;4997457;28;19933;-68
2022/04/28 06:38:32;;;;;;;;;;;11.20;99.90;;;;;;5012224;28;19925;-67
2022/04/28 06:40:57;;;;;;;;;;;11.30;99.90;;;;;;5007414;28;20027;-67
2022/04/28 06:43:23;;;;;;;;;;;11.70;99.90;;;;;;5022441;28;19933;-69
2022/04/28 06:48:33;;;;;;;;;;;11.30;99.90;;;;;;4997716;28;19929;-69
2022/04/28 06:50:58;;;;;;;;;;;11.00;99.90;;;;;;5007972;28;19925;-68
2022/04/28 06:53:24;;;;;;;;;;;10.90;99.90;;;;;;5006142;28;19926;-68
2022/04/28 06:55:52;;;;;;;;;;;10.60;99.90;;;;;;5003691;28;19926;-70
2022/04/28 06:58:21;;;;;;;;;;;10.50;99.90;;;;;;5022027;28;19936;-67
2022/04/28 07:00:48;;;;;;;;;;;10.50;99.90;;;;;;5006469;28;19933;-68
2022/04/28 07:03:14;;;;;;;;;;;10.50;99.90;;;;;;5024692;28;19932;-68
2022/04/28 07:05:39;;;;;;;;;;;10.60;99.90;;;;;;4998534;28;20287;-68
2022/04/28 07:08:05;;;;;;;;;;;10.70;99.90;;;;;;4991665;28;19926;-68
2022/04/28 07:10:31;;;;;;;;;;;10.80;99.90;;;;;;5015859;28;19932;-68
2022/04/28 07:12:56;;;;;;;;;;;11.20;99.90;;;;;;4998365;28;19925;-68
2022/04/28 07:15:22;;;;;;;;;;;11.50;99.90;;;;;;4996462;28;19945;-68
2022/04/28 07:17:47;;;;;;;;;;;11.70;99.90;;;;;;4998057;28;19926;-67
2022/04/28 07:20:13;;;;;;;;;;;11.90;99.90;;;;;;5007463;28;19925;-68
2022/04/28 07:22:39;;;;;;;;;;;11.90;99.90;;;;;;4992810;28;19948;-68
2022/04/28 07:25:05;;;;;;;;;;;12.20;99.90;;;;;;5002678;28;20269;-67
2022/04/28 07:27:30;;;;;;;;;;;12.10;99.90;;;;;;5007575;28;19925;-68
2022/04/28 07:29:56;;;;;;;;;;;12.10;99.90;;;;;;4994549;28;19977;-69
2022/04/28 07:32:21;;;;;;;;;;;12.10;99.90;;;;;;5024504;28;19975;-69
2022/04/28 07:34:47;;;;;;;;;;;11.90;99.90;;;;;;4978674;28;19925;-68
2022/04/28 07:37:12;;;;;;;;;;;12.00;99.90;;;;;;5000365;28;19925;-67
2022/04/28 07:39:39;;;;;;;;;;;12.00;99.90;;;;;;5000659;28;19925;-68
2022/04/28 07:42:05;;;;;;;;;;;12.00;99.90;;;;;;4990179;28;19925;-68
2022/04/28 07:44:30;;;;;;;;;;;11.90;99.90;;;;;;4994330;28;19932;-69
2022/04/28 07:46:56;;;;;;;;;;;12.20;99.90;;;;;;4995040;28;19925;-67
2022/04/28 07:49:22;;;;;;;;;;;12.20;99.90;;;;;;5014322;28;19929;-68
2022/04/28 07:51:47;;;;;;;;;;;12.20;99.90;;;;;;5001893;28;20016;-68
2022/04/28 07:54:17;;;;;;;;;;;12.30;99.90;;;;;;5010732;28;19929;-69
2022/04/28 07:56:42;;;;;;;;;;;12.30;99.90;;;;;;5006020;28;19932;-67
2022/04/28 07:59:09;;;;;;;;;;;12.40;99.90;;;;;;4996393;28;19926;-68
2022/04/28 08:01:34;;;;;;;;;;;12.30;99.90;;;;;;4992511;28;19933;-68
2022/04/28 08:04:00;;;;;;;;;;;12.00;99.70;;;;;;5003849;28;19925;-68
2022/04/28 08:06:25;;;;;;;;;;;11.70;99.80;;;;;;5001387;28;19952;-68
2022/04/28 08:08:51;;;;;;;;;;;12.70;99.90;;;;;;5025991;28;20414;-68
2022/04/28 08:11:16;;;;;;;;;;;11.50;99.90;;;;;;5008674;28;19925;-68
2022/04/28 08:13:42;;;;;;;;;;;11.60;99.90;;;;;;5001348;28;19926;-68
2022/04/28 08:16:08;;;;;;;;;;;11.70;99.90;;;;;;5010673;28;19936;-68
2022/04/28 08:18:36;;;;;;;;;;;11.80;99.90;;;;;;5008523;28;20462;-69
2022/04/28 08:21:02;;;;;;;;;;;11.70;99.90;;;;;;5004188;28;19926;-68
2022/04/28 08:23:27;;;;;;;;;;;11.40;99.90;;;;;;4997120;28;19929;-67
2022/04/28 08:25:53;;;;;;;;;;;11.40;99.90;;;;;;5010008;28;19925;-68
2022/04/28 08:28:19;;;;;;;;;;;11.60;99.90;;;;;;5010490;28;20040;-69
2022/04/28 08:30:44;;;;;;;;;;;11.50;99.90;;;;;;5002554;28;19921;-69
2022/04/28 08:33:10;;;;;;;;;;;11.70;99.90;;;;;;4989300;28;20339;-70
2022/04/28 08:35:35;;;;;;;;;;;11.50;99.90;;;;;;4998160;28;19925;-68
2022/04/28 08:38:01;;;;;;;;;;;11.50;99.90;;;;;;5010028;28;19926;-69
2022/04/28 08:40:27;;;;;;;;;;;11.40;99.90;;;;;;5007911;28;19933;-69
2022/04/28 08:42:52;;;;;;;;;;;11.50;99.90;;;;;;5009672;28;19925;-69
2022/04/28 08:45:21;;;;;;;;;;;11.70;99.90;;;;;;5010306;28;19932;-68
2022/04/28 08:47:48;;;;;;;;;;;11.60;99.90;;;;;;5009688;28;19926;-69
2022/04/28 08:50:14;;;;;;;;;;;11.60;99.90;;;;;;5007117;28;19979;-69
2022/04/28 08:52:40;;;;;;;;;;;11.60;99.90;;;;;;4984449;28;19932;-69
2022/04/28 08:55:06;;;;;;;;;;;11.50;99.90;;;;;;5010536;28;19925;-68
2022/04/28 08:57:34;;;;;;;;;;;11.50;99.90;;;;;;4995214;28;20314;-68
2022/04/28 09:00:00;;;;;;;;;;;11.50;99.90;;;;;;5005932;28;20350;-68
2022/04/28 09:02:27;;;;;;;;;;;11.50;99.90;;;;;;5008477;28;19971;-69
2022/04/28 09:04:58;;;;;;;;;;;11.30;99.90;;;;;;5003699;28;20392;-68
2022/04/28 09:07:32;;;;;;;;;;;11.20;99.90;;;;;;5000383;28;19925;-69
2022/04/28 09:09:57;;;;;;;;;;;11.30;99.90;;;;;;4994247;28;19971;-68
2022/04/28 09:12:23;;;;;;;;;;;11.30;99.90;;;;;;5004661;28;19930;-68
2022/04/28 09:14:48;;;;;;;;;;;11.30;99.90;;;;;;4990848;28;19925;-67
2022/04/28 09:17:14;;;;;;;;;;;11.30;99.90;;;;;;5005039;28;19991;-69
2022/04/28 09:19:39;;;;;;;;;;;11.20;99.90;;;;;;5000780;28;20275;-68
2022/04/28 09:22:14;;;;;;;;;;;11.30;99.90;;;;;;4990847;28;19972;-69
2022/04/28 09:24:44;;;;;;;;;;;11.20;99.90;;;;;;5002464;28;19931;-67
2022/04/28 09:27:11;;;;;;;;;;;11.10;99.90;;;;;;5007251;28;19926;-69
2022/04/28 09:29:39;;;;;;;;;;;11.10;99.90;;;;;;5009844;28;19932;-68
2022/04/28 09:32:06;;;;;;;;;;;11.20;99.90;;;;;;5004141;28;19980;-68
2022/04/28 09:34:32;;;;;;;;;;;11.20;99.90;;;;;;5006746;28;19925;-68
2022/04/28 09:36:58;;;;;;;;;;;11.60;99.90;;;;;;5005727;28;19948;-68
2022/04/28 09:44:54;;;;;;;;;;;11.10;99.90;;;;;;4999359;28;19922;-67
2022/04/28 09:47:20;;;;;;;;;;;11.20;99.90;;;;;;4995578;28;19995;-68
2022/04/28 09:49:52;;;;;;;;;;;11.40;99.90;;;;;;5001979;28;20370;-68
2022/04/28 09:52:18;;;;;;;;;;;11.50;99.90;;;;;;4988858;28;20067;-68
2022/04/28 09:54:44;;;;;;;;;;;11.50;99.90;;;;;;4990852;28;20418;-69
2022/04/28 09:57:10;;;;;;;;;;;12.00;99.90;;;;;;5003221;28;19921;-67
2022/04/28 09:59:36;;;;;;;;;;;11.30;99.90;;;;;;5004490;28;19976;-68
2022/04/28 10:02:02;;;;;;;;;;;11.30;99.90;;;;;;5001778;28;20020;-68
2022/04/28 10:04:28;;;;;;;;;;;11.30;99.90;;;;;;5007330;28;20394;-68
2022/04/28 10:06:55;;;;;;;;;;;11.40;99.90;;;;;;5006700;28;20023;-68
2022/04/28 10:09:21;;;;;;;;;;;11.40;99.90;;;;;;4996649;28;20376;-69
2022/04/28 10:11:48;;;;;;;;;;;11.50;99.90;;;;;;5005243;28;19925;-69
2022/04/28 10:14:13;;;;;;;;;;;11.40;99.90;;;;;;5000072;28;19929;-69
2022/04/28 10:16:41;;;;;;;;;;;11.40;99.90;;;;;;5002726;28;19925;-68
2022/04/28 10:19:15;;;;;;;;;;;11.40;99.90;;;;;;4994188;28;20016;-68
2022/04/28 10:21:47;;;;;;;;;;;11.30;99.90;;;;;;5001751;28;19925;-69
2022/04/28 10:32:55;;;;;;;;;;;11.80;99.90;;;;;;5008225;28;19964;-69
2022/04/28 10:35:34;;;;;;;;;;;11.90;99.90;;;;;;5006368;28;19925;-68
2022/04/28 10:38:11;;;;;;;;;;;12.00;99.90;;;;;;4999115;28;19925;-69
2022/04/28 10:40:38;;;;;;;;;;;12.00;99.90;;;;;;4999510;28;19925;-68
2022/04/28 10:43:03;;;;;;;;;;;11.90;99.90;;;;;;5007758;28;19925;-69
2022/04/28 10:45:37;;;;;;;;;;;11.80;99.90;;;;;;5007261;28;20634;-70
2022/04/28 10:48:34;;;;;;;;;;;11.80;99.90;;;;;;4994934;28;20444;-70
2022/04/28 10:51:01;;;;;;;;;;;11.80;99.90;;;;;;4999347;28;19926;-70
2022/04/28 10:53:27;;;;;;;;;;;12.00;99.90;;;;;;4992891;28;19928;-68
2022/04/28 10:55:52;;;;;;;;;;;12.00;99.90;;;;;;5001252;28;20397;-69
2022/04/28 10:58:22;;;;;;;;;;;11.80;99.90;;;;;;5003894;28;20241;-68
2022/04/28 11:00:55;;;;;;;;;;;11.70;99.90;;;;;;5011760;28;20040;-68
2022/04/28 11:03:40;;;;;;;;;;;11.80;99.90;;;;;;4998277;28;19941;-69
2022/04/28 11:06:07;;;;;;;;;;;11.90;99.90;;;;;;4993190;28;20252;-69
2022/04/28 11:08:34;;;;;;;;;;;11.90;99.90;;;;;;4999227;28;20291;-69
2022/04/28 11:11:08;;;;;;;;;;;12.00;99.90;;;;;;4999849;28;20016;-70
2022/04/28 11:13:34;;;;;;;;;;;12.00;99.90;;;;;;5012823;28;20012;-68
2022/04/28 11:16:01;;;;;;;;;;;12.00;99.90;;;;;;5008117;28;19925;-69
2022/04/28 11:18:27;;;;;;;;;;;12.00;99.90;;;;;;5010793;28;20400;-69
2022/04/28 11:20:57;;;;;;;;;;;12.10;99.90;;;;;;5001860;28;20005;-69
2022/04/28 11:23:22;;;;;;;;;;;12.10;99.90;;;;;;4992665;28;19937;-69
2022/04/28 11:25:48;;;;;;;;;;;12.20;99.90;;;;;;5005446;28;19925;-69
2022/04/28 11:28:14;;;;;;;;;;;12.70;99.80;;;;;;5017733;28;19947;-70
2022/04/28 11:30:41;;;;;;;;;;;12.20;99.90;;;;;;5001317;28;20366;-70
2022/04/28 11:33:09;;;;;;;;;;;12.10;99.90;;;;;;4992328;28;19925;-68
2022/04/28 11:35:36;;;;;;;;;;;12.20;99.90;;;;;;5003273;28;20458;-68
2022/04/28 11:38:02;;;;;;;;;;;12.20;99.90;;;;;;5013060;28;19926;-68
2022/04/28 11:40:30;;;;;;;;;;;12.20;99.90;;;;;;4997711;28;19980;-69
2022/04/28 11:42:59;;;;;;;;;;;12.20;99.90;;;;;;5007747;28;19933;-68
2022/04/28 11:45:26;;;;;;;;;;;12.20;99.90;;;;;;5000093;28;20337;-68
2022/04/28 11:47:55;;;;;;;;;;;12.40;99.70;;;;;;5000963;28;19967;-68
2022/04/28 11:50:22;;;;;;;;;;;12.60;99.90;;;;;;5001719;28;19926;-69
2022/04/28 11:53:01;;;;;;;;;;;12.70;99.40;;;;;;5005716;28;19925;-69
2022/04/28 11:55:29;;;;;;;;;;;12.70;99.70;;;;;;5007236;28;20008;-70
2022/04/28 11:57:54;;;;;;;;;;;12.70;99.00;;;;;;5000778;28;19926;-69
2022/04/28 12:00:20;;;;;;;;;;;12.60;98.80;;;;;;5004810;28;19932;-69
2022/04/28 12:02:46;;;;;;;;;;;12.40;98.90;;;;;;5010754;28;19925;-68
2022/04/28 12:05:15;;;;;;;;;;;12.50;99.50;;;;;;5010381;28;19932;-69
2022/04/28 12:07:42;;;;;;;;;;;12.60;99.40;;;;;;4995686;28;20019;-70
2022/04/28 12:15:37;;;;;;;;;;;12.60;99.20;;;;;;4999865;28;20004;-69
2022/04/28 12:20:55;;;;;;;;;;;12.70;98.80;;;;;;4996840;28;20353;-68
2022/04/28 12:23:34;;;;;;;;;;;12.70;98.70;;;;;;5017045;28;19951;-70
2022/04/28 12:26:01;;;;;;;;;;;12.50;99.50;;;;;;5024524;28;19921;-68
2022/04/28 12:28:30;;;;;;;;;;;12.40;99.80;;;;;;4975939;28;19926;-68
2022/04/28 12:30:56;;;;;;;;;;;12.50;99.30;;;;;;4997732;28;19925;-69
2022/04/28 12:33:21;;;;;;;;;;;12.40;99.90;;;;;;4999257;28;20331;-68
2022/04/28 12:35:47;;;;;;;;;;;12.50;99.30;;;;;;5003704;28;19925;-68
2022/04/28 12:38:22;;;;;;;;;;;12.30;99.60;;;;;;5003627;28;19933;-69
2022/04/28 12:40:48;;;;;;;;;;;12.40;99.30;;;;;;4999549;28;19925;-68
2022/04/28 12:43:33;;;;;;;;;;;12.50;99.60;;;;;;5006831;28;20012;-68
2022/04/28 12:45:59;;;;;;;;;;;12.80;99.50;;;;;;5000498;28;20240;-69
2022/04/28 12:48:34;;;;;;;;;;;12.90;98.80;;;;;;5009125;28;20252;-67
2022/04/28 12:51:13;;;;;;;;;;;13.00;98.90;;;;;;5000749;28;20406;-69
2022/04/28 12:53:40;;;;;;;;;;;12.90;98.60;;;;;;4995690;28;19944;-68
2022/04/28 12:56:10;;;;;;;;;;;13.10;98.30;;;;;;5010558;28;19952;-68
2022/04/28 12:58:36;;;;;;;;;;;12.90;98.40;;;;;;5010192;28;20123;-68
2022/04/28 13:01:02;;;;;;;;;;;13.00;98.90;;;;;;5008930;28;19971;-69
2022/04/28 13:03:28;;;;;;;;;;;13.20;98.40;;;;;;5008037;28;19921;-69
2022/04/28 13:05:55;;;;;;;;;;;13.10;98.70;;;;;;5004235;28;20376;-68
2022/04/28 13:08:20;;;;;;;;;;;13.00;98.40;;;;;;5017804;28;19926;-68
2022/04/28 13:10:46;;;;;;;;;;;12.80;98.00;;;;;;4989160;28;20374;-68
2022/04/28 13:13:11;;;;;;;;;;;12.80;98.80;;;;;;5004093;28;19925;-69
2022/04/28 13:15:37;;;;;;;;;;;13.20;99.00;;;;;;5002069;28;20337;-68
2022/04/28 13:18:02;;;;;;;;;;;13.50;98.80;;;;;;4993006;28;20332;-69
2022/04/28 13:20:28;;;;;;;;;;;13.40;98.10;;;;;;4998027;28;19926;-69
2022/04/28 13:22:54;;;;;;;;;;;13.70;97.10;;;;;;4998764;28;20451;-67
2022/04/28 13:25:20;;;;;;;;;;;14.30;98.00;;;;;;5013453;28;19979;-69
2022/04/28 13:27:46;;;;;;;;;;;14.80;95.90;;;;;;5009381;28;20032;-69
2022/04/28 13:30:13;;;;;;;;;;;15.00;95.70;;;;;;5004499;28;20397;-68
2022/04/28 13:32:39;;;;;;;;;;;15.40;95.80;;;;;;5008684;28;20071;-68
2022/04/28 13:35:05;;;;;;;;;;;16.60;95.00;;;;;;5006850;28;20012;-68
2022/04/28 13:37:31;;;;;;;;;;;15.60;93.60;;;;;;5008533;28;19932;-69
2022/04/28 13:39:56;;;;;;;;;;;15.70;94.80;;;;;;5017456;28;19925;-69
2022/04/28 13:42:22;;;;;;;;;;;16.00;93.70;;;;;;5004992;28;19929;-67
2022/04/28 13:44:47;;;;;;;;;;;16.00;93.00;;;;;;4997478;28;19925;-68
2022/04/28 13:47:13;;;;;;;;;;;15.40;93.00;;;;;;4999085;28;19925;-67
2022/04/28 13:49:38;;;;;;;;;;;15.20;93.30;;;;;;5009419;28;19925;-69
2022/04/28 13:52:04;;;;;;;;;;;15.50;94.10;;;;;;5001937;28;19994;-67
2022/04/28 13:54:30;;;;;;;;;;;16.20;93.70;;;;;;5009618;28;19932;-68
2022/04/28 13:56:55;;;;;;;;;;;16.60;91.90;;;;;;5005439;28;19967;-68
2022/04/28 13:59:21;;;;;;;;;;;16.10;92.50;;;;;;5000407;28;20027;-68
2022/04/28 14:01:46;;;;;;;;;;;15.50;92.50;;;;;;5008073;28;20307;-68
2022/04/28 14:04:14;;;;;;;;;;;14.80;93.30;;;;;;5005778;28;20005;-68
2022/04/28 14:06:40;;;;;;;;;;;14.50;95.40;;;;;;5008587;28;19929;-68
2022/04/28 14:09:06;;;;;;;;;;;14.80;93.90;;;;;;4995747;28;20298;-67
2022/04/28 14:11:34;;;;;;;;;;;14.70;93.70;;;;;;5002567;28;20305;-69
2022/04/28 14:14:00;;;;;;;;;;;14.50;94.10;;;;;;5001973;28;20375;-69
2022/04/28 14:16:26;;;;;;;;;;;14.60;94.60;;;;;;4995100;28;19926;-68
2022/04/28 14:18:52;;;;;;;;;;;13.90;95.30;;;;;;5008274;28;19971;-68
2022/04/28 14:21:17;;;;;;;;;;;14.60;95.20;;;;;;4998377;28;20288;-68
2022/04/28 14:23:45;;;;;;;;;;;15.30;93.70;;;;;;5013111;28;19925;-68
2022/04/28 14:26:11;;;;;;;;;;;15.80;93.00;;;;;;5007974;28;19980;-68
2022/04/28 14:28:37;;;;;;;;;;;15.70;92.50;;;;;;4997968;28;20463;-68
2022/04/28 14:31:02;;;;;;;;;;;15.90;93.20;;;;;;4996616;28;19957;-67
2022/04/28 14:33:28;;;;;;;;;;;15.90;92.10;;;;;;4997729;28;19936;-69
2022/04/28 14:35:53;;;;;;;;;;;15.60;92.30;;;;;;5009071;28;19973;-69
2022/04/28 14:38:20;;;;;;;;;;;14.90;93.30;;;;;;5007568;28;19928;-68
2022/04/28 14:40:46;;;;;;;;;;;14.40;93.70;;;;;;5005036;28;19925;-69
2022/04/28 14:43:11;;;;;;;;;;;13.90;94.60;;;;;;5003064;28;19932;-69
2022/04/28 14:45:38;;;;;;;;;;;13.50;94.80;;;;;;5001667;28;19926;-68
2022/04/28 14:48:04;;;;;;;;;;;14.20;96.20;;;;;;5004492;28;19968;-69
2022/04/28 14:53:16;;;;;;;;;;;13.20;95.90;;;;;;4997214;28;19949;-68
2022/04/28 14:55:41;;;;;;;;;;;13.10;96.50;;;;;;5006418;28;19925;-68
2022/04/28 14:58:07;;;;;;;;;;;12.90;96.50;;;;;;5027877;28;20351;-69
2022/04/28 15:00:33;;;;;;;;;;;13.10;96.40;;;;;;4997364;28;19952;-68
2022/04/28 15:02:59;;;;;;;;;;;13.00;96.60;;;;;;5005677;28;20008;-69
2022/04/28 15:05:24;;;;;;;;;;;12.80;96.60;;;;;;4993568;28;20012;-69